createdAt,value
2017-11-09T00:00:42.990Z,5.10
2017-11-09T00:03:11.404Z,5.10
2017-11-09T00:05:45.460Z,5.10
2017-11-09T00:08:13.875Z,5.00
2017-11-09T00:10:42.284Z,5.00
2017-11-09T00:13:10.711Z,4.90
2017-11-09T00:15:39.141Z,4.80
2017-11-09T00:18:08.333Z,4.80
2017-11-09T00:20:36.765Z,4.80
2017-11-09T00:23:06.411Z,4.80
2017-11-09T00:25:34.824Z,4.80
2017-11-09T00:28:04.019Z,4.90
2017-11-09T00:30:33.191Z,4.90
2017-11-09T00:33:01.617Z,4.90
2017-11-09T00:35:30.047Z,5.00
2017-11-09T00:37:58.460Z,5.00
2017-11-09T00:40:26.880Z,5.00
2017-11-09T00:42:55.320Z,5.00
2017-11-09T00:45:23.742Z,5.00
2017-11-09T00:47:52.163Z,5.00
2017-11-09T00:50:21.370Z,5.10
2017-11-09T00:52:50.554Z,5.10
2017-11-09T00:55:19.215Z,5.10
2017-11-09T00:57:47.647Z,5.20
2017-11-09T01:00:16.064Z,5.20
2017-11-09T01:02:44.480Z,5.20
2017-11-09T01:05:13.683Z,5.20
2017-11-09T01:07:42.869Z,5.20
2017-11-09T01:10:12.064Z,5.20
2017-11-09T01:12:41.262Z,5.20
2017-11-09T01:15:10.483Z,5.20
2017-11-09T01:17:38.900Z,5.20
2017-11-09T01:20:07.330Z,5.20
2017-11-09T01:22:36.508Z,5.20
2017-11-09T01:25:05.681Z,5.20
2017-11-09T01:27:34.229Z,5.20
2017-11-09T01:30:02.650Z,5.20
2017-11-09T01:32:31.070Z,5.20
2017-11-09T01:34:59.512Z,5.30
2017-11-09T01:37:27.940Z,5.30
2017-11-09T01:39:56.364Z,5.30
2017-11-09T01:42:24.792Z,5.30
2017-11-09T01:44:53.220Z,5.30
2017-11-09T01:47:21.298Z,5.30
2017-11-09T01:49:49.725Z,5.30
2017-11-09T01:52:18.158Z,5.30
2017-11-09T01:54:46.572Z,5.30
2017-11-09T01:57:14.653Z,5.30
2017-11-09T01:59:43.074Z,5.30
2017-11-09T02:02:11.501Z,5.30
2017-11-09T02:04:39.926Z,5.30
2017-11-09T02:07:07.995Z,5.30
2017-11-09T02:09:36.416Z,5.30
2017-11-09T02:12:05.608Z,5.30
2017-11-09T02:14:34.444Z,5.30
2017-11-09T02:17:02.855Z,5.30
2017-11-09T02:19:30.599Z,5.30
2017-11-09T02:21:58.330Z,5.30
2017-11-09T02:24:26.394Z,5.30
2017-11-09T02:26:54.475Z,5.30
2017-11-09T02:29:22.197Z,5.30
2017-11-09T02:31:50.701Z,5.30
2017-11-09T02:34:18.782Z,5.30
2017-11-09T02:36:47.195Z,5.30
2017-11-09T02:39:15.606Z,5.30
2017-11-09T02:41:44.459Z,5.30
2017-11-09T02:44:12.886Z,5.30
2017-11-09T02:46:40.607Z,5.30
2017-11-09T02:49:09.030Z,5.30
2017-11-09T02:51:37.446Z,5.30
2017-11-09T02:54:05.854Z,5.30
2017-11-09T02:56:33.591Z,5.30
2017-11-09T02:59:01.691Z,5.30
2017-11-09T03:01:30.497Z,5.30
2017-11-09T03:03:59.696Z,5.40
2017-11-09T03:06:28.868Z,5.40
2017-11-09T03:08:57.285Z,5.40
2017-11-09T03:11:25.971Z,5.40
2017-11-09T03:13:54.387Z,5.40
2017-11-09T03:16:22.848Z,5.40
2017-11-09T03:18:51.275Z,5.40
2017-11-09T03:21:19.691Z,5.40
2017-11-09T03:23:48.110Z,5.40
2017-11-09T03:26:16.540Z,5.40
2017-11-09T03:28:44.950Z,5.40
2017-11-09T03:31:13.423Z,5.40
2017-11-09T03:33:41.859Z,5.40
2017-11-09T03:36:11.040Z,5.40
2017-11-09T03:38:39.462Z,5.30
2017-11-09T03:41:07.905Z,5.40
2017-11-09T03:43:36.340Z,5.40
2017-11-09T03:46:04.100Z,5.40
2017-11-09T03:48:32.529Z,5.40
2017-11-09T03:51:01.712Z,5.40
2017-11-09T03:53:30.121Z,5.40
2017-11-09T03:55:59.311Z,5.40
2017-11-09T03:58:28.486Z,5.40
2017-11-09T04:00:56.899Z,5.40
2017-11-09T04:03:25.332Z,5.40
2017-11-09T04:05:53.734Z,5.40
2017-11-09T04:08:22.147Z,5.40
2017-11-09T04:10:50.572Z,5.40
2017-11-09T04:13:18.990Z,5.40
2017-11-09T04:15:48.177Z,5.40
2017-11-09T04:18:17.385Z,5.40
2017-11-09T04:20:45.811Z,5.40
2017-11-09T04:23:14.230Z,5.40
2017-11-09T04:25:43.443Z,5.40
2017-11-09T04:28:11.861Z,5.40
2017-11-09T04:30:40.270Z,5.40
2017-11-09T04:33:08.690Z,5.40
2017-11-09T04:35:37.109Z,5.40
2017-11-09T04:38:05.519Z,5.40
2017-11-09T04:40:34.727Z,5.40
2017-11-09T04:43:03.142Z,5.40
2017-11-09T04:45:31.554Z,5.40
2017-11-09T04:47:59.980Z,5.40
2017-11-09T04:50:28.470Z,5.40
2017-11-09T04:52:56.880Z,5.40
2017-11-09T04:55:25.121Z,5.40
2017-11-09T04:57:53.600Z,5.40
2017-11-09T05:00:22.007Z,5.40
2017-11-09T05:02:50.444Z,5.40
2017-11-09T05:05:18.540Z,5.40
2017-11-09T05:07:46.963Z,5.40
2017-11-09T05:10:15.397Z,5.40
2017-11-09T05:12:43.471Z,5.40
2017-11-09T05:15:11.891Z,5.40
2017-11-09T05:17:40.422Z,5.40
2017-11-09T05:20:08.833Z,5.40
2017-11-09T05:22:39.024Z,5.40
2017-11-09T05:25:07.460Z,5.40
2017-11-09T05:27:36.655Z,5.40
2017-11-09T05:30:05.662Z,5.40
2017-11-09T05:32:34.088Z,5.40
2017-11-09T05:35:02.514Z,5.40
2017-11-09T05:37:31.703Z,5.40
2017-11-09T05:40:00.910Z,5.40
2017-11-09T05:42:29.331Z,5.40
2017-11-09T05:44:57.751Z,5.40
2017-11-09T05:47:26.950Z,5.40
2017-11-09T05:49:56.128Z,5.40
2017-11-09T05:52:24.561Z,5.40
2017-11-09T05:54:53.015Z,5.50
2017-11-09T05:57:21.855Z,5.50
2017-11-09T05:59:50.278Z,5.50
2017-11-09T06:02:19.470Z,5.50
2017-11-09T06:04:48.654Z,5.50
2017-11-09T06:07:17.108Z,5.40
2017-11-09T06:09:45.540Z,5.50
2017-11-09T06:12:14.747Z,5.50
2017-11-09T06:14:43.161Z,5.40
2017-11-09T06:17:11.594Z,5.50
2017-11-09T06:19:40.784Z,5.50
2017-11-09T06:22:09.984Z,5.50
2017-11-09T06:24:39.195Z,5.50
2017-11-09T06:27:07.621Z,5.50
2017-11-09T06:29:36.072Z,5.50
2017-11-09T06:32:04.492Z,5.50
2017-11-09T06:34:32.911Z,5.50
2017-11-09T06:37:01.323Z,5.50
2017-11-09T06:39:29.758Z,5.50
2017-11-09T06:41:58.174Z,5.50
2017-11-09T06:44:26.584Z,5.60
2017-11-09T06:46:55.011Z,5.60
2017-11-09T06:49:23.442Z,5.60
2017-11-09T06:51:52.639Z,5.60
2017-11-09T06:54:21.069Z,5.60
2017-11-09T06:56:49.479Z,5.60
2017-11-09T06:59:17.885Z,5.60
2017-11-09T07:01:46.316Z,5.60
2017-11-09T07:04:14.756Z,5.60
2017-11-09T07:06:43.234Z,5.70
2017-11-09T07:09:12.439Z,5.70
2017-11-09T07:11:41.643Z,5.70
2017-11-09T07:14:10.048Z,5.70
2017-11-09T07:16:38.514Z,5.70
2017-11-09T07:19:06.943Z,5.80
2017-11-09T07:21:35.345Z,5.80
2017-11-09T07:24:03.773Z,5.80
2017-11-09T07:26:32.720Z,5.90
2017-11-09T07:29:01.896Z,6.00
2017-11-09T07:31:29.987Z,5.90
2017-11-09T07:33:59.163Z,6.00
2017-11-09T07:36:27.570Z,6.00
2017-11-09T07:38:56.016Z,6.00
2017-11-09T07:41:24.465Z,6.00
2017-11-09T07:43:52.877Z,6.10
2017-11-09T07:46:22.614Z,6.10
2017-11-09T07:48:51.031Z,6.10
2017-11-09T07:51:19.451Z,6.10
2017-11-09T07:53:48.660Z,6.20
2017-11-09T07:56:17.845Z,6.20
2017-11-09T07:58:46.675Z,6.20
2017-11-09T08:01:15.115Z,6.20
2017-11-09T08:03:44.435Z,6.30
2017-11-09T08:06:12.871Z,6.20
2017-11-09T08:08:41.314Z,6.30
2017-11-09T08:11:09.727Z,6.30
2017-11-09T08:13:39.659Z,6.40
2017-11-09T08:16:08.094Z,6.40
2017-11-09T08:18:36.514Z,6.40
2017-11-09T08:21:04.953Z,6.50
2017-11-09T08:23:33.908Z,6.50
2017-11-09T08:26:04.504Z,6.60
2017-11-09T08:28:35.458Z,6.60
2017-11-09T08:31:05.328Z,6.60
2017-11-09T08:33:36.651Z,6.60
2017-11-09T08:36:05.135Z,6.60
2017-11-09T08:38:33.361Z,6.60
2017-11-09T08:41:01.792Z,6.70
2017-11-09T08:43:30.217Z,6.70
2017-11-09T08:45:58.620Z,6.70
2017-11-09T08:48:27.065Z,6.60
2017-11-09T08:50:55.484Z,6.60
2017-11-09T08:53:24.664Z,6.70
2017-11-09T08:55:53.858Z,6.90
2017-11-09T08:58:23.039Z,7.00
2017-11-09T09:00:51.455Z,7.00
2017-11-09T09:03:19.900Z,7.20
2017-11-09T09:05:47.964Z,7.20
2017-11-09T09:08:16.368Z,7.20
2017-11-09T09:10:45.366Z,7.40
2017-11-09T09:13:14.566Z,7.40
2017-11-09T09:15:42.800Z,7.40
2017-11-09T09:18:11.049Z,7.60
2017-11-09T09:20:51.161Z,7.60
2017-11-09T09:23:20.172Z,7.80
2017-11-09T09:25:55.577Z,7.80
2017-11-09T09:28:33.737Z,7.80
2017-11-09T09:31:01.964Z,7.80
2017-11-09T09:33:32.096Z,7.80
2017-11-09T09:36:07.430Z,7.90
2017-11-09T09:38:37.807Z,7.80
2017-11-09T09:41:06.042Z,7.80
2017-11-09T09:43:34.280Z,7.90
2017-11-09T09:46:02.509Z,8.00
2017-11-09T09:48:30.736Z,8.00
2017-11-09T09:50:58.976Z,8.00
2017-11-09T09:53:27.480Z,8.10
2017-11-09T09:55:55.916Z,8.20
2017-11-09T09:58:24.360Z,8.40
2017-11-09T10:00:52.585Z,8.40
2017-11-09T10:03:21.003Z,8.40
2017-11-09T10:05:49.431Z,8.30
2017-11-09T10:08:17.840Z,8.30
2017-11-09T10:10:46.252Z,8.20
2017-11-09T10:13:15.459Z,8.10
2017-11-09T10:15:44.659Z,8.00
2017-11-09T10:18:13.845Z,7.90
2017-11-09T10:20:43.038Z,7.90
2017-11-09T10:23:12.219Z,8.00
2017-11-09T10:25:41.394Z,8.00
2017-11-09T10:28:10.836Z,7.90
2017-11-09T10:30:40.014Z,7.90
2017-11-09T10:33:10.246Z,7.90
2017-11-09T10:35:38.876Z,7.90
2017-11-09T10:38:07.297Z,7.80
2017-11-09T10:40:35.719Z,7.80
2017-11-09T10:43:04.404Z,7.80
2017-11-09T10:45:32.816Z,7.70
2017-11-09T10:48:01.232Z,7.70
2017-11-09T10:50:30.672Z,7.60
2017-11-09T10:52:59.097Z,7.60
2017-11-09T10:55:27.516Z,7.60
2017-11-09T10:57:56.003Z,7.40
2017-11-09T11:00:29.926Z,7.40
2017-11-09T11:02:58.356Z,7.40
2017-11-09T11:05:26.772Z,7.40
2017-11-09T11:07:55.187Z,7.30
2017-11-09T11:10:23.627Z,7.20
2017-11-09T11:12:52.041Z,7.10
2017-11-09T11:15:20.450Z,7.10
2017-11-09T11:17:48.882Z,7.10
2017-11-09T11:20:17.115Z,7.10
2017-11-09T11:22:46.302Z,7.20
2017-11-09T11:25:15.513Z,7.10
2017-11-09T11:27:44.710Z,7.10
2017-11-09T11:30:13.201Z,7.10
2017-11-09T11:32:41.274Z,7.10
2017-11-09T11:35:09.689Z,7.10
2017-11-09T11:37:38.096Z,7.10
2017-11-09T11:40:06.532Z,7.10
2017-11-09T11:42:34.952Z,7.10
2017-11-09T11:45:03.361Z,7.10
2017-11-09T11:47:34.027Z,7.10
2017-11-09T11:50:02.442Z,7.10
2017-11-09T11:52:30.862Z,7.10
2017-11-09T11:54:59.287Z,7.10
2017-11-09T11:57:27.704Z,7.00
2017-11-09T11:59:56.896Z,7.10
2017-11-09T12:02:25.583Z,7.00
2017-11-09T12:04:54.775Z,7.00
2017-11-09T12:07:24.007Z,7.00
2017-11-09T12:09:52.443Z,7.00
2017-11-09T12:12:24.549Z,7.00
2017-11-09T12:14:52.978Z,7.00
2017-11-09T12:17:21.395Z,7.00
2017-11-09T12:19:49.811Z,7.00
2017-11-09T12:22:18.243Z,7.00
2017-11-09T12:24:46.476Z,7.00
2017-11-09T12:27:14.903Z,7.00
2017-11-09T12:29:43.333Z,7.00
2017-11-09T12:32:11.755Z,7.00
2017-11-09T12:34:40.175Z,7.00
2017-11-09T12:37:08.603Z,7.00
2017-11-09T12:39:37.794Z,7.00
2017-11-09T12:42:06.641Z,7.00
2017-11-09T12:44:35.068Z,7.00
2017-11-09T12:47:03.905Z,7.00
2017-11-09T12:49:32.333Z,7.00
2017-11-09T12:52:01.524Z,7.00
2017-11-09T12:54:30.705Z,6.90
2017-11-09T12:56:59.118Z,6.90
2017-11-09T12:59:27.548Z,6.90
2017-11-09T13:01:55.770Z,6.90
2017-11-09T13:04:24.270Z,6.90
2017-11-09T13:06:52.692Z,6.90
2017-11-09T13:09:21.101Z,6.90
2017-11-09T13:11:49.585Z,7.00
2017-11-09T13:14:17.835Z,6.90
2017-11-09T13:16:46.064Z,7.00
2017-11-09T13:19:14.293Z,7.00
2017-11-09T13:21:43.485Z,7.00
2017-11-09T13:24:11.717Z,7.00
2017-11-09T13:26:40.969Z,7.00
2017-11-09T13:29:10.183Z,7.00
2017-11-09T13:31:38.627Z,7.00
2017-11-09T13:34:07.812Z,7.00
2017-11-09T13:36:36.263Z,7.00
2017-11-09T13:39:03.983Z,7.00
2017-11-09T13:41:32.990Z,7.00
2017-11-09T13:44:01.421Z,6.90
2017-11-09T13:46:29.831Z,7.00
2017-11-09T13:48:59.017Z,7.00
2017-11-09T13:51:27.678Z,6.90
2017-11-09T13:53:56.097Z,6.90
2017-11-09T13:56:25.300Z,6.90
2017-11-09T13:58:53.965Z,6.90
2017-11-09T14:01:23.138Z,6.90
2017-11-09T14:03:52.331Z,6.90
2017-11-09T14:06:20.758Z,6.90
2017-11-09T14:08:49.162Z,6.90
2017-11-09T14:11:18.170Z,6.90
2017-11-09T14:13:46.600Z,6.90
2017-11-09T14:16:15.766Z,6.90
2017-11-09T14:18:44.185Z,6.80
2017-11-09T14:21:12.620Z,6.90
2017-11-09T14:23:40.854Z,6.80
2017-11-09T14:26:09.328Z,6.90
2017-11-09T14:28:38.019Z,6.80
2017-11-09T14:31:06.433Z,6.80
2017-11-09T14:33:34.867Z,6.80
2017-11-09T14:36:03.301Z,6.80
2017-11-09T14:38:32.496Z,6.90
2017-11-09T14:41:00.913Z,6.80
2017-11-09T14:43:29.343Z,6.90
2017-11-09T14:45:57.759Z,6.80
2017-11-09T14:48:26.935Z,6.80
2017-11-09T14:50:55.375Z,6.80
2017-11-09T14:53:25.075Z,6.80
2017-11-09T14:55:53.495Z,6.80
2017-11-09T14:58:21.925Z,6.80
2017-11-09T15:00:50.335Z,6.80
2017-11-09T15:03:19.001Z,6.80
2017-11-09T15:05:47.426Z,6.80
2017-11-09T15:08:15.658Z,6.80
2017-11-09T15:10:43.893Z,6.80
2017-11-09T15:13:13.086Z,6.70
2017-11-09T15:15:42.262Z,6.80
2017-11-09T15:18:10.326Z,6.70
2017-11-09T15:20:38.750Z,6.80
2017-11-09T15:23:07.052Z,6.70
2017-11-09T15:25:35.352Z,6.70
2017-11-09T15:28:03.262Z,6.70
2017-11-09T15:30:31.506Z,6.70
2017-11-09T15:32:59.763Z,6.70
2017-11-09T15:35:28.022Z,6.70
2017-11-09T15:37:56.440Z,6.70
2017-11-09T15:40:25.625Z,6.70
2017-11-09T15:42:54.054Z,6.70
2017-11-09T15:45:22.503Z,6.70
2017-11-09T15:47:51.690Z,6.70
2017-11-09T15:50:21.743Z,6.70
2017-11-09T15:52:50.168Z,6.70
2017-11-09T15:55:18.574Z,6.70
2017-11-09T15:57:47.919Z,6.70
2017-11-09T16:00:16.337Z,6.70
2017-11-09T16:02:44.747Z,6.70
2017-11-09T16:05:13.183Z,6.70
2017-11-09T16:07:45.121Z,6.70
2017-11-09T16:10:13.355Z,6.70
2017-11-09T16:12:42.551Z,6.70
2017-11-09T16:15:11.741Z,6.70
2017-11-09T16:17:40.930Z,6.70
2017-11-09T16:20:10.123Z,6.70
2017-11-09T16:22:39.325Z,6.70
2017-11-09T16:25:08.504Z,6.70
2017-11-09T16:27:36.944Z,6.70
2017-11-09T16:30:09.826Z,6.70
2017-11-09T16:32:38.247Z,6.70
2017-11-09T16:35:07.435Z,6.70
2017-11-09T16:37:35.866Z,6.70
2017-11-09T16:40:03.599Z,6.70
2017-11-09T16:42:36.610Z,6.70
2017-11-09T16:45:05.808Z,6.70
2017-11-09T16:47:34.247Z,6.70
2017-11-09T16:50:02.320Z,6.70
2017-11-09T16:52:31.536Z,6.60
2017-11-09T16:55:00.727Z,6.60
2017-11-09T16:57:29.940Z,6.70
2017-11-09T16:59:59.138Z,6.70
2017-11-09T17:02:28.327Z,6.70
2017-11-09T17:04:57.517Z,6.70
2017-11-09T17:07:26.720Z,6.70
2017-11-09T17:09:55.911Z,6.70
2017-11-09T17:12:25.088Z,6.70
2017-11-09T17:14:59.021Z,6.60
2017-11-09T17:17:28.265Z,6.60
2017-11-09T17:19:56.701Z,6.60
2017-11-09T17:22:25.907Z,6.60
2017-11-09T17:24:54.319Z,6.60
2017-11-09T17:27:22.788Z,6.60
2017-11-09T17:29:51.224Z,6.60
2017-11-09T17:32:20.413Z,6.60
2017-11-09T17:34:48.837Z,6.60
2017-11-09T17:37:19.214Z,6.70
2017-11-09T17:39:49.148Z,6.60
2017-11-09T17:42:19.281Z,6.70
2017-11-09T17:44:47.715Z,6.70
2017-11-09T17:47:15.946Z,6.70
2017-11-09T17:49:44.027Z,6.70
2017-11-09T17:52:12.472Z,6.70
2017-11-09T17:54:41.687Z,6.60
2017-11-09T17:57:10.105Z,6.60
2017-11-09T17:59:42.371Z,6.60
2017-11-09T18:02:10.813Z,6.60
2017-11-09T18:04:39.252Z,6.60
2017-11-09T18:07:07.715Z,6.60
2017-11-09T18:09:35.831Z,6.60
2017-11-09T18:12:05.054Z,6.60
2017-11-09T18:14:33.529Z,6.60
2017-11-09T18:17:02.013Z,6.60
2017-11-09T18:19:31.020Z,6.60
2017-11-09T18:22:01.253Z,6.60
2017-11-09T18:24:29.694Z,6.60
2017-11-09T18:26:58.249Z,6.60
2017-11-09T18:29:27.504Z,6.60
2017-11-09T18:32:01.575Z,6.60
2017-11-09T18:34:30.023Z,6.60
2017-11-09T18:36:58.256Z,6.60
2017-11-09T18:39:26.740Z,6.60
2017-11-09T18:41:55.232Z,6.60
2017-11-09T18:44:23.696Z,6.60
2017-11-09T18:46:52.179Z,6.60
2017-11-09T18:49:20.692Z,6.60
2017-11-09T18:51:49.177Z,6.60
2017-11-09T18:54:17.652Z,6.60
2017-11-09T18:59:25.447Z,6.50
2017-11-09T19:01:54.130Z,6.50
2017-11-09T19:04:22.602Z,6.50
2017-11-09T19:06:51.049Z,6.50
2017-11-09T19:09:20.287Z,6.60
2017-11-09T19:11:48.851Z,6.50
2017-11-09T19:14:17.427Z,6.50
2017-11-09T19:16:46.034Z,6.50
2017-11-09T19:19:14.613Z,6.60
2017-11-09T19:21:43.062Z,6.50
2017-11-09T19:24:12.068Z,6.60
2017-11-09T19:26:40.506Z,6.60
2017-11-09T19:29:08.970Z,6.60
2017-11-09T19:31:37.483Z,6.60
2017-11-09T19:34:05.976Z,6.60
2017-11-09T19:36:34.431Z,6.60
2017-11-09T19:39:03.158Z,6.60
2017-11-09T19:41:31.917Z,6.50
2017-11-09T19:44:01.142Z,6.50
2017-11-09T19:49:20.629Z,6.50
2017-11-09T19:51:49.374Z,6.50
2017-11-09T19:54:18.605Z,6.50
2017-11-09T19:56:47.100Z,6.50
2017-11-09T19:59:15.599Z,6.60
2017-11-09T20:04:40.798Z,6.50
2017-11-09T20:07:09.265Z,6.50
2017-11-09T20:12:17.338Z,6.50
2017-11-09T20:14:45.793Z,6.50
2017-11-09T20:19:53.607Z,6.50
2017-11-09T20:22:22.175Z,6.50
2017-11-09T20:24:50.867Z,6.50
2017-11-09T20:27:19.312Z,6.50
2017-11-09T20:29:47.819Z,6.50
2017-11-09T20:32:16.273Z,6.50
2017-11-09T20:34:44.755Z,6.50
2017-11-09T20:37:13.311Z,6.50
2017-11-09T20:39:41.751Z,6.50
2017-11-09T20:42:10.273Z,6.50
2017-11-09T20:44:39.617Z,6.50
2017-11-09T20:47:08.052Z,6.40
2017-11-09T20:49:36.516Z,6.50
2017-11-09T20:52:04.744Z,6.50
2017-11-09T20:54:33.246Z,6.50
2017-11-09T20:57:01.750Z,6.50
2017-11-09T20:59:30.365Z,6.50
2017-11-09T21:01:58.880Z,6.50
2017-11-09T21:04:27.323Z,6.50
2017-11-09T21:06:55.844Z,6.50
2017-11-09T21:09:24.270Z,6.40
2017-11-09T21:11:53.081Z,6.40
2017-11-09T21:14:21.556Z,6.40
2017-11-09T21:16:50.756Z,6.40
2017-11-09T21:19:19.943Z,6.40
2017-11-09T21:21:49.134Z,6.40
2017-11-09T21:24:18.302Z,6.50
2017-11-09T21:26:47.054Z,6.50
2017-11-09T21:29:15.467Z,6.40
2017-11-09T21:31:43.880Z,6.40
2017-11-09T21:34:13.076Z,6.40
2017-11-09T21:36:42.266Z,6.40
2017-11-09T21:39:11.443Z,6.40
2017-11-09T21:41:39.880Z,6.40
2017-11-09T21:44:08.295Z,6.40
2017-11-09T21:46:36.706Z,6.40
2017-11-09T21:49:05.927Z,6.30
2017-11-09T21:51:34.384Z,6.30
2017-11-09T21:54:03.565Z,6.30
2017-11-09T21:56:32.774Z,6.40
2017-11-09T21:59:01.954Z,6.40
2017-11-09T22:01:30.385Z,6.40
2017-11-09T22:03:58.816Z,6.40
2017-11-09T22:06:27.233Z,6.40
2017-11-09T22:08:55.639Z,6.40
2017-11-09T22:11:24.092Z,6.40
2017-11-09T22:13:52.521Z,6.40
2017-11-09T22:16:20.934Z,6.40
2017-11-09T22:18:49.371Z,6.40
2017-11-09T22:21:17.818Z,6.40
2017-11-09T22:23:46.243Z,6.40
2017-11-09T22:26:14.923Z,6.40
2017-11-09T22:28:43.360Z,6.40
2017-11-09T22:31:12.007Z,6.40
2017-11-09T22:33:41.207Z,6.40
2017-11-09T22:36:10.379Z,6.30
2017-11-09T22:38:38.796Z,6.30
2017-11-09T22:41:07.231Z,6.30
2017-11-09T22:43:35.643Z,6.40
2017-11-09T22:46:04.636Z,6.30
2017-11-09T22:48:33.834Z,6.30
2017-11-09T22:51:03.017Z,6.30
2017-11-09T22:53:32.199Z,6.30
2017-11-09T22:56:01.213Z,6.30
2017-11-09T22:58:30.383Z,6.30
2017-11-09T23:00:58.796Z,6.30
2017-11-09T23:03:27.990Z,6.30
2017-11-09T23:05:57.213Z,6.30
2017-11-09T23:08:25.643Z,6.30
2017-11-09T23:10:53.879Z,6.30
2017-11-09T23:13:22.099Z,6.30
2017-11-09T23:15:50.524Z,6.30
2017-11-09T23:18:18.964Z,6.30
2017-11-09T23:20:47.956Z,6.30
2017-11-09T23:23:17.130Z,6.30
2017-11-09T23:25:45.557Z,6.30
2017-11-09T23:28:13.975Z,6.40
2017-11-09T23:30:43.398Z,6.30
2017-11-09T23:33:11.838Z,6.30
2017-11-09T23:35:40.246Z,6.30
2017-11-09T23:38:08.648Z,6.30
2017-11-09T23:40:37.860Z,6.30
2017-11-09T23:43:07.054Z,6.30
2017-11-09T23:45:35.480Z,6.20
2017-11-09T23:48:03.928Z,6.20
2017-11-09T23:50:32.333Z,6.30
2017-11-09T23:53:00.747Z,6.30
2017-11-09T23:55:29.944Z,6.20
2017-11-09T23:57:58.170Z,6.20
